sensor_id;sensor_type;location;lat;lon;timestamp;pressure;altitude;pressure_sealevel;temperature;humidity
11011;BME280;5558;42.702;23.178;2023-07-13T00:00:07;93966.78;;;20.79;98.96
11011;BME280;5558;42.702;23.178;2023-07-13T00:02:37;93964.38;;;21.03;93.50
11011;BME280;5558;42.702;23.178;2023-07-13T00:05:04;93960.09;;;21.10;94.05
11011;BME280;5558;42.702;23.178;2023-07-13T00:07:31;93964.22;;;21.08;91.67
11011;BME280;5558;42.702;23.178;2023-07-13T00:09:58;93961.47;;;21.25;88.77
11011;BME280;5558;42.702;23.178;2023-07-13T00:12:28;93959.41;;;21.22;87.09
11011;BME280;5558;42.702;23.178;2023-07-13T00:14:57;93958.94;;;21.20;86.71
11011;BME280;5558;42.702;23.178;2023-07-13T00:17:24;93961.75;;;21.32;87.54
11011;BME280;5558;42.702;23.178;2023-07-13T00:19:50;93950.25;;;21.14;86.98
11011;BME280;5558;42.702;23.178;2023-07-13T00:22:18;93944.38;;;21.21;84.81
11011;BME280;5558;42.702;23.178;2023-07-13T00:24:45;93945.59;;;21.32;83.60
11011;BME280;5558;42.702;23.178;2023-07-13T00:27:12;93940.44;;;21.47;81.17
11011;BME280;5558;42.702;23.178;2023-07-13T00:29:40;93944.38;;;21.50;77.89
11011;BME280;5558;42.702;23.178;2023-07-13T00:32:07;93945.47;;;21.57;74.79
11011;BME280;5558;42.702;23.178;2023-07-13T00:34:37;93943.44;;;21.75;77.69
11011;BME280;5558;42.702;23.178;2023-07-13T00:37:04;93941.41;;;21.81;76.32
11011;BME280;5558;42.702;23.178;2023-07-13T00:39:33;93943.19;;;21.68;78.67
11011;BME280;5558;42.702;23.178;2023-07-13T00:42:00;93917.06;;;21.60;81.35
11011;BME280;5558;42.702;23.178;2023-07-13T00:44:27;93937.72;;;21.56;83.82
11011;BME280;5558;42.702;23.178;2023-07-13T00:46:56;93929.78;;;21.59;79.98
11011;BME280;5558;42.702;23.178;2023-07-13T00:49:25;93930.78;;;21.46;82.55
11011;BME280;5558;42.702;23.178;2023-07-13T00:51:55;93915.03;;;21.28;83.70
11011;BME280;5558;42.702;23.178;2023-07-13T00:54:27;93943.78;;;21.07;84.77
11011;BME280;5558;42.702;23.178;2023-07-13T00:56:57;93937.88;;;20.33;97.91
11011;BME280;5558;42.702;23.178;2023-07-13T00:59:26;93937.41;;;19.97;100.00
11011;BME280;5558;42.702;23.178;2023-07-13T01:01:53;93933.09;;;19.96;100.00
11011;BME280;5558;42.702;23.178;2023-07-13T01:04:23;93926.97;;;19.95;100.00
11011;BME280;5558;42.702;23.178;2023-07-13T01:06:50;93932.66;;;20.28;100.00
11011;BME280;5558;42.702;23.178;2023-07-13T01:09:17;93932.66;;;19.94;100.00
11011;BME280;5558;42.702;23.178;2023-07-13T01:11:44;93937.22;;;19.93;100.00
11011;BME280;5558;42.702;23.178;2023-07-13T01:14:11;93936.97;;;20.20;100.00
11011;BME280;5558;42.702;23.178;2023-07-13T01:16:39;93927.16;;;20.16;100.00
11011;BME280;5558;42.702;23.178;2023-07-13T01:19:17;93924.59;;;20.19;100.00
11011;BME280;5558;42.702;23.178;2023-07-13T01:21:52;93933.16;;;20.30;100.00
11011;BME280;5558;42.702;23.178;2023-07-13T01:24:19;93929.81;;;20.07;100.00
11011;BME280;5558;42.702;23.178;2023-07-13T01:26:45;93925.19;;;19.82;100.00
11011;BME280;5558;42.702;23.178;2023-07-13T01:29:12;93925.03;;;19.87;100.00
11011;BME280;5558;42.702;23.178;2023-07-13T01:31:39;93924.91;;;19.92;100.00
11011;BME280;5558;42.702;23.178;2023-07-13T01:34:05;93920.16;;;20.15;100.00
11011;BME280;5558;42.702;23.178;2023-07-13T01:36:33;93927.75;;;20.13;100.00
11011;BME280;5558;42.702;23.178;2023-07-13T01:39:01;93922.22;;;20.26;100.00
11011;BME280;5558;42.702;23.178;2023-07-13T01:41:28;93925.56;;;20.23;100.00
11011;BME280;5558;42.702;23.178;2023-07-13T01:43:55;93914.50;;;20.25;100.00
11011;BME280;5558;42.702;23.178;2023-07-13T01:46:21;93921.91;;;20.36;100.00
11011;BME280;5558;42.702;23.178;2023-07-13T01:48:48;93909.59;;;20.35;100.00
11011;BME280;5558;42.702;23.178;2023-07-13T01:51:15;93919.06;;;20.41;100.00
11011;BME280;5558;42.702;23.178;2023-07-13T01:53:42;93912.59;;;20.42;100.00
11011;BME280;5558;42.702;23.178;2023-07-13T01:56:10;93909.41;;;20.40;100.00
11011;BME280;5558;42.702;23.178;2023-07-13T01:58:37;93912.75;;;20.46;100.00
11011;BME280;5558;42.702;23.178;2023-07-13T02:01:04;93914.94;;;20.44;100.00
11011;BME280;5558;42.702;23.178;2023-07-13T02:03:30;93922.69;;;20.45;100.00
11011;BME280;5558;42.702;23.178;2023-07-13T02:05:57;93920.19;;;20.32;100.00
11011;BME280;5558;42.702;23.178;2023-07-13T02:08:24;93922.41;;;20.30;100.00
11011;BME280;5558;42.702;23.178;2023-07-13T02:10:51;93922.38;;;20.38;100.00
11011;BME280;5558;42.702;23.178;2023-07-13T02:13:19;93918.78;;;20.34;100.00
11011;BME280;5558;42.702;23.178;2023-07-13T02:15:45;93927.44;;;20.40;100.00
11011;BME280;5558;42.702;23.178;2023-07-13T02:18:12;93925.88;;;20.47;100.00
11011;BME280;5558;42.702;23.178;2023-07-13T02:20:42;93934.41;;;20.49;100.00
11011;BME280;5558;42.702;23.178;2023-07-13T02:23:09;93916.53;;;20.36;100.00
11011;BME280;5558;42.702;23.178;2023-07-13T02:25:36;93931.41;;;20.51;100.00
11011;BME280;5558;42.702;23.178;2023-07-13T02:28:03;93930.63;;;20.16;100.00
11011;BME280;5558;42.702;23.178;2023-07-13T02:30:31;93930.59;;;20.08;100.00
11011;BME280;5558;42.702;23.178;2023-07-13T02:32:58;93933.91;;;19.96;100.00
11011;BME280;5558;42.702;23.178;2023-07-13T02:35:25;93934.22;;;19.78;100.00
11011;BME280;5558;42.702;23.178;2023-07-13T02:37:52;93936.72;;;19.66;100.00
11011;BME280;5558;42.702;23.178;2023-07-13T02:40:19;93937.66;;;19.61;100.00
11011;BME280;5558;42.702;23.178;2023-07-13T02:42:46;93934.81;;;19.58;100.00
11011;BME280;5558;42.702;23.178;2023-07-13T02:45:12;93943.00;;;19.44;100.00
11011;BME280;5558;42.702;23.178;2023-07-13T02:47:42;93941.88;;;19.45;100.00
11011;BME280;5558;42.702;23.178;2023-07-13T02:50:09;93942.31;;;19.38;100.00
11011;BME280;5558;42.702;23.178;2023-07-13T02:52:36;93944.56;;;19.54;100.00
11011;BME280;5558;42.702;23.178;2023-07-13T02:55:03;93940.66;;;19.60;100.00
11011;BME280;5558;42.702;23.178;2023-07-13T02:57:29;93945.22;;;19.51;100.00
11011;BME280;5558;42.702;23.178;2023-07-13T02:59:58;93946.19;;;19.55;100.00
11011;BME280;5558;42.702;23.178;2023-07-13T03:02:24;93954.88;;;19.60;100.00
11011;BME280;5558;42.702;23.178;2023-07-13T03:04:55;93951.44;;;19.68;100.00
11011;BME280;5558;42.702;23.178;2023-07-13T03:07:21;93943.50;;;19.63;100.00
11011;BME280;5558;42.702;23.178;2023-07-13T03:09:48;93954.28;;;19.72;100.00
11011;BME280;5558;42.702;23.178;2023-07-13T03:12:15;93953.19;;;19.90;100.00
11011;BME280;5558;42.702;23.178;2023-07-13T03:14:42;93927.59;;;19.84;100.00
11011;BME280;5558;42.702;23.178;2023-07-13T03:17:09;93942.16;;;20.17;100.00
11011;BME280;5558;42.702;23.178;2023-07-13T03:19:35;93941.84;;;20.18;100.00
11011;BME280;5558;42.702;23.178;2023-07-13T03:22:04;93951.66;;;20.31;100.00
11011;BME280;5558;42.702;23.178;2023-07-13T03:24:32;93949.59;;;20.45;100.00
11011;BME280;5558;42.702;23.178;2023-07-13T03:27:00;93957.16;;;20.69;100.00
11011;BME280;5558;42.702;23.178;2023-07-13T03:29:27;93959.28;;;21.10;100.00
11011;BME280;5558;42.702;23.178;2023-07-13T03:31:54;93950.66;;;21.33;100.00
11011;BME280;5558;42.702;23.178;2023-07-13T03:34:21;93966.22;;;22.15;100.00
11011;BME280;5558;42.702;23.178;2023-07-13T03:36:47;93962.28;;;22.74;100.00
11011;BME280;5558;42.702;23.178;2023-07-13T03:39:17;93958.72;;;23.39;96.14
11011;BME280;5558;42.702;23.178;2023-07-13T03:41:44;93959.28;;;24.05;88.59
11011;BME280;5558;42.702;23.178;2023-07-13T03:44:11;93965.31;;;24.78;81.41
11011;BME280;5558;42.702;23.178;2023-07-13T03:46:38;93969.22;;;25.51;74.82
11011;BME280;5558;42.702;23.178;2023-07-13T03:49:05;93967.44;;;26.21;69.54
11011;BME280;5558;42.702;23.178;2023-07-13T03:51:31;93961.66;;;26.95;64.81
11011;BME280;5558;42.702;23.178;2023-07-13T03:53:58;93967.72;;;27.72;58.91
11011;BME280;5558;42.702;23.178;2023-07-13T03:56:27;93966.53;;;28.44;56.89
11011;BME280;5558;42.702;23.178;2023-07-13T03:58:53;93961.81;;;28.67;54.55
11011;BME280;5558;42.702;23.178;2023-07-13T04:01:22;93972.25;;;29.61;51.97
11011;BME280;5558;42.702;23.178;2023-07-13T04:03:50;93967.38;;;30.28;49.30
11011;BME280;5558;42.702;23.178;2023-07-13T04:06:19;93968.56;;;31.06;47.04
11011;BME280;5558;42.702;23.178;2023-07-13T04:08:51;93973.47;;;31.72;44.39
11011;BME280;5558;42.702;23.178;2023-07-13T04:11:19;93973.88;;;32.48;43.44
11011;BME280;5558;42.702;23.178;2023-07-13T04:13:48;93975.69;;;33.07;41.71
11011;BME280;5558;42.702;23.178;2023-07-13T04:16:16;93974.09;;;33.89;39.27
11011;BME280;5558;42.702;23.178;2023-07-13T04:18:43;93991.75;;;34.47;37.95
11011;BME280;5558;42.702;23.178;2023-07-13T04:21:10;93986.16;;;34.57;38.19
11011;BME280;5558;42.702;23.178;2023-07-13T04:23:37;93988.06;;;35.01;36.65
11011;BME280;5558;42.702;23.178;2023-07-13T04:26:05;93986.59;;;35.26;36.08
11011;BME280;5558;42.702;23.178;2023-07-13T04:28:33;93992.06;;;35.90;34.55
11011;BME280;5558;42.702;23.178;2023-07-13T04:31:01;93999.47;;;36.46;34.35
11011;BME280;5558;42.702;23.178;2023-07-13T04:33:28;94002.59;;;37.14;33.02
11011;BME280;5558;42.702;23.178;2023-07-13T04:35:56;94002.66;;;37.50;31.73
11011;BME280;5558;42.702;23.178;2023-07-13T04:38:24;94007.66;;;38.10;30.70
11011;BME280;5558;42.702;23.178;2023-07-13T04:40:54;94005.09;;;38.19;30.61
11011;BME280;5558;42.702;23.178;2023-07-13T04:43:21;93994.91;;;38.48;29.74
11011;BME280;5558;42.702;23.178;2023-07-13T04:45:48;94009.22;;;38.63;29.48
11011;BME280;5558;42.702;23.178;2023-07-13T04:48:16;94020.19;;;39.27;28.51
11011;BME280;5558;42.702;23.178;2023-07-13T04:50:43;94012.50;;;39.47;27.90
11011;BME280;5558;42.702;23.178;2023-07-13T04:53:10;94030.84;;;40.49;26.96
11011;BME280;5558;42.702;23.178;2023-07-13T04:55:37;94020.09;;;40.38;26.73
11011;BME280;5558;42.702;23.178;2023-07-13T04:58:04;94030.03;;;39.57;27.81
11011;BME280;5558;42.702;23.178;2023-07-13T05:00:31;94022.91;;;37.43;30.00
11011;BME280;5558;42.702;23.178;2023-07-13T05:02:58;94023.53;;;37.90;30.03
11011;BME280;5558;42.702;23.178;2023-07-13T05:05:29;94013.44;;;38.67;29.64
11011;BME280;5558;42.702;23.178;2023-07-13T05:07:55;94020.75;;;39.35;29.10
11011;BME280;5558;42.702;23.178;2023-07-13T05:10:23;94026.81;;;39.58;28.74
11011;BME280;5558;42.702;23.178;2023-07-13T05:12:50;94034.72;;;40.26;28.04
11011;BME280;5558;42.702;23.178;2023-07-13T05:15:17;94035.03;;;40.28;27.40
11011;BME280;5558;42.702;23.178;2023-07-13T05:17:46;94037.38;;;40.30;27.39
11011;BME280;5558;42.702;23.178;2023-07-13T05:20:13;94036.13;;;41.28;25.90
11011;BME280;5558;42.702;23.178;2023-07-13T05:22:41;94045.81;;;41.79;24.96
11011;BME280;5558;42.702;23.178;2023-07-13T05:25:09;94048.53;;;42.44;24.17
11011;BME280;5558;42.702;23.178;2023-07-13T05:27:36;94037.56;;;42.98;22.95
11011;BME280;5558;42.702;23.178;2023-07-13T05:30:03;94037.91;;;43.27;23.44
11011;BME280;5558;42.702;23.178;2023-07-13T05:32:30;94045.63;;;43.86;22.80
11011;BME280;5558;42.702;23.178;2023-07-13T05:34:57;94045.84;;;43.74;23.24
11011;BME280;5558;42.702;23.178;2023-07-13T05:37:24;94039.47;;;43.46;23.26
11011;BME280;5558;42.702;23.178;2023-07-13T05:39:52;94039.59;;;43.33;23.39
11011;BME280;5558;42.702;23.178;2023-07-13T05:42:19;94045.78;;;43.92;22.34
11011;BME280;5558;42.702;23.178;2023-07-13T05:44:45;94048.00;;;43.70;22.48
11011;BME280;5558;42.702;23.178;2023-07-13T05:47:12;94053.53;;;44.57;21.54
11011;BME280;5558;42.702;23.178;2023-07-13T05:49:40;94054.13;;;44.70;21.35
11011;BME280;5558;42.702;23.178;2023-07-13T05:52:07;94031.09;;;43.46;23.13
11011;BME280;5558;42.702;23.178;2023-07-13T05:54:34;94028.78;;;43.63;23.62
11011;BME280;5558;42.702;23.178;2023-07-13T05:57:02;94018.19;;;40.73;25.94
11011;BME280;5558;42.702;23.178;2023-07-13T05:59:29;94017.53;;;40.31;26.16
11011;BME280;5558;42.702;23.178;2023-07-13T06:01:55;94018.13;;;39.85;28.08
11011;BME280;5558;42.702;23.178;2023-07-13T06:04:22;94023.47;;;38.77;29.06
11011;BME280;5558;42.702;23.178;2023-07-13T06:06:49;94015.84;;;40.21;27.58
11011;BME280;5558;42.702;23.178;2023-07-13T06:09:16;94042.38;;;39.11;27.14
11011;BME280;5558;42.702;23.178;2023-07-13T06:11:43;94044.88;;;39.22;27.50
11011;BME280;5558;42.702;23.178;2023-07-13T06:14:11;94034.06;;;39.40;26.62
11011;BME280;5558;42.702;23.178;2023-07-13T06:16:39;94031.81;;;39.06;29.20
11011;BME280;5558;42.702;23.178;2023-07-13T06:19:06;94028.81;;;38.84;29.02
11011;BME280;5558;42.702;23.178;2023-07-13T06:21:33;94037.41;;;39.76;27.84
11011;BME280;5558;42.702;23.178;2023-07-13T06:23:59;94049.13;;;38.94;28.97
11011;BME280;5558;42.702;23.178;2023-07-13T06:26:26;94035.53;;;38.19;29.24
11011;BME280;5558;42.702;23.178;2023-07-13T06:28:53;94045.06;;;39.43;28.87
11011;BME280;5558;42.702;23.178;2023-07-13T06:31:21;94036.28;;;39.61;29.44
11011;BME280;5558;42.702;23.178;2023-07-13T06:33:48;94033.16;;;39.30;29.08
11011;BME280;5558;42.702;23.178;2023-07-13T06:36:15;94024.41;;;40.01;29.07
11011;BME280;5558;42.702;23.178;2023-07-13T06:38:41;94029.25;;;39.56;29.50
11011;BME280;5558;42.702;23.178;2023-07-13T06:41:08;94035.72;;;40.57;28.13
11011;BME280;5558;42.702;23.178;2023-07-13T06:43:35;94032.03;;;39.97;28.15
11011;BME280;5558;42.702;23.178;2023-07-13T06:46:02;94034.69;;;38.54;29.68
11011;BME280;5558;42.702;23.178;2023-07-13T06:48:30;94031.84;;;38.26;29.49
11011;BME280;5558;42.702;23.178;2023-07-13T06:50:56;94026.63;;;39.37;28.19
11011;BME280;5558;42.702;23.178;2023-07-13T06:53:23;94034.84;;;39.12;29.36
11011;BME280;5558;42.702;23.178;2023-07-13T06:55:51;94033.19;;;40.38;26.91
11011;BME280;5558;42.702;23.178;2023-07-13T06:58:18;94031.72;;;40.58;27.19
11011;BME280;5558;42.702;23.178;2023-07-13T07:00:46;94041.47;;;40.00;28.07
11011;BME280;5558;42.702;23.178;2023-07-13T07:03:14;94033.94;;;40.13;27.93
11011;BME280;5558;42.702;23.178;2023-07-13T07:05:42;94041.47;;;39.59;28.15
11011;BME280;5558;42.702;23.178;2023-07-13T07:08:09;94038.59;;;39.05;29.73
11011;BME280;5558;42.702;23.178;2023-07-13T07:10:36;94033.84;;;39.63;28.16
11011;BME280;5558;42.702;23.178;2023-07-13T07:13:03;94033.25;;;40.09;28.09
11011;BME280;5558;42.702;23.178;2023-07-13T07:15:30;94030.38;;;40.00;27.82
11011;BME280;5558;42.702;23.178;2023-07-13T07:17:56;94031.16;;;40.13;28.31
11011;BME280;5558;42.702;23.178;2023-07-13T07:20:23;94034.25;;;40.28;28.55
11011;BME280;5558;42.702;23.178;2023-07-13T07:22:51;94023.03;;;40.69;28.72
11011;BME280;5558;42.702;23.178;2023-07-13T07:25:18;94013.41;;;40.61;29.26
11011;BME280;5558;42.702;23.178;2023-07-13T07:27:45;94025.81;;;40.56;29.57
11011;BME280;5558;42.702;23.178;2023-07-13T07:30:13;94021.63;;;40.27;28.76
11011;BME280;5558;42.702;23.178;2023-07-13T07:32:40;94019.50;;;40.05;28.96
11011;BME280;5558;42.702;23.178;2023-07-13T07:35:07;94019.53;;;39.64;29.87
11011;BME280;5558;42.702;23.178;2023-07-13T07:37:36;94005.25;;;38.12;32.10
11011;BME280;5558;42.702;23.178;2023-07-13T07:40:06;94008.66;;;37.64;33.51
11011;BME280;5558;42.702;23.178;2023-07-13T07:42:33;94007.09;;;37.63;33.01
11011;BME280;5558;42.702;23.178;2023-07-13T07:45:00;93997.75;;;37.18;33.93
11011;BME280;5558;42.702;23.178;2023-07-13T07:47:27;94007.88;;;37.05;34.76
11011;BME280;5558;42.702;23.178;2023-07-13T07:49:54;93992.78;;;37.10;34.93
11011;BME280;5558;42.702;23.178;2023-07-13T07:52:20;93999.84;;;36.91;34.92
11011;BME280;5558;42.702;23.178;2023-07-13T07:54:47;93992.84;;;36.40;36.78
11011;BME280;5558;42.702;23.178;2023-07-13T07:57:15;93994.91;;;36.59;36.15
11011;BME280;5558;42.702;23.178;2023-07-13T07:59:42;93988.38;;;36.23;33.51
11011;BME280;5558;42.702;23.178;2023-07-13T08:02:09;93979.44;;;36.16;36.36
11011;BME280;5558;42.702;23.178;2023-07-13T08:04:37;93975.31;;;36.04;37.56
11011;BME280;5558;42.702;23.178;2023-07-13T08:07:04;93979.47;;;36.39;31.90
11011;BME280;5558;42.702;23.178;2023-07-13T08:09:31;93979.22;;;36.76;29.71
11011;BME280;5558;42.702;23.178;2023-07-13T08:11:57;93980.03;;;36.96;29.03
11011;BME280;5558;42.702;23.178;2023-07-13T08:14:25;93974.16;;;36.94;27.50
11011;BME280;5558;42.702;23.178;2023-07-13T08:16:53;93979.13;;;37.22;28.84
11011;BME280;5558;42.702;23.178;2023-07-13T08:19:20;93949.94;;;37.21;27.04
11011;BME280;5558;42.702;23.178;2023-07-13T08:21:47;93969.59;;;37.27;26.81
11011;BME280;5558;42.702;23.178;2023-07-13T08:24:14;93979.16;;;37.42;26.86
11011;BME280;5558;42.702;23.178;2023-07-13T08:26:43;93977.84;;;37.66;26.59
11011;BME280;5558;42.702;23.178;2023-07-13T08:29:10;93971.59;;;37.81;27.01
11011;BME280;5558;42.702;23.178;2023-07-13T08:31:38;93971.13;;;37.47;27.95
11011;BME280;5558;42.702;23.178;2023-07-13T08:34:05;93956.53;;;37.47;28.84
11011;BME280;5558;42.702;23.178;2023-07-13T08:36:32;93954.34;;;36.80;26.48
11011;BME280;5558;42.702;23.178;2023-07-13T08:38:58;93957.19;;;36.96;27.77
11011;BME280;5558;42.702;23.178;2023-07-13T08:41:26;93960.72;;;36.96;27.38
11011;BME280;5558;42.702;23.178;2023-07-13T08:43:57;93954.19;;;37.06;28.21
11011;BME280;5558;42.702;23.178;2023-07-13T08:46:27;93971.50;;;37.10;28.23
11011;BME280;5558;42.702;23.178;2023-07-13T08:48:59;93970.63;;;36.94;28.23
11011;BME280;5558;42.702;23.178;2023-07-13T08:51:36;93966.19;;;36.77;28.48
11011;BME280;5558;42.702;23.178;2023-07-13T08:54:12;93968.13;;;36.80;27.27
11011;BME280;5558;42.702;23.178;2023-07-13T08:56:45;93969.69;;;36.81;27.88
11011;BME280;5558;42.702;23.178;2023-07-13T08:59:14;93987.69;;;36.65;27.69
11011;BME280;5558;42.702;23.178;2023-07-13T09:01:53;93995.38;;;36.54;25.92
11011;BME280;5558;42.702;23.178;2023-07-13T09:04:29;94000.09;;;36.54;27.38
11011;BME280;5558;42.702;23.178;2023-07-13T09:07:05;94006.44;;;36.74;27.97
11011;BME280;5558;42.702;23.178;2023-07-13T09:09:46;94000.47;;;36.56;29.92
11011;BME280;5558;42.702;23.178;2023-07-13T09:12:20;94000.06;;;36.77;27.82
11011;BME280;5558;42.702;23.178;2023-07-13T09:14:50;93996.13;;;37.01;26.43
11011;BME280;5558;42.702;23.178;2023-07-13T09:17:22;93992.94;;;37.22;28.97
11011;BME280;5558;42.702;23.178;2023-07-13T09:19:57;93996.97;;;37.18;29.02
11011;BME280;5558;42.702;23.178;2023-07-13T09:22:27;93988.53;;;37.25;25.22
11011;BME280;5558;42.702;23.178;2023-07-13T09:25:00;93986.91;;;37.08;27.68
11011;BME280;5558;42.702;23.178;2023-07-13T09:27:33;93997.31;;;37.00;27.75
11011;BME280;5558;42.702;23.178;2023-07-13T09:30:15;94004.97;;;37.12;27.54
11011;BME280;5558;42.702;23.178;2023-07-13T09:32:48;93997.69;;;37.22;27.15
11011;BME280;5558;42.702;23.178;2023-07-13T09:35:22;93989.47;;;37.18;27.23
11011;BME280;5558;42.702;23.178;2023-07-13T09:37:56;93992.28;;;37.15;26.70
11011;BME280;5558;42.702;23.178;2023-07-13T09:40:30;93996.59;;;36.96;25.97
11011;BME280;5558;42.702;23.178;2023-07-13T09:43:02;93992.38;;;36.92;25.84
11011;BME280;5558;42.702;23.178;2023-07-13T09:45:33;93988.88;;;36.88;26.88
11011;BME280;5558;42.702;23.178;2023-07-13T09:48:05;93961.34;;;36.84;25.21
11011;BME280;5558;42.702;23.178;2023-07-13T09:50:34;93977.16;;;37.03;24.99
11011;BME280;5558;42.702;23.178;2023-07-13T09:53:01;93960.59;;;36.84;25.96
11011;BME280;5558;42.702;23.178;2023-07-13T09:55:30;93967.66;;;36.61;25.46
11011;BME280;5558;42.702;23.178;2023-07-13T09:57:58;93961.28;;;36.64;27.61
11011;BME280;5558;42.702;23.178;2023-07-13T10:00:30;93958.25;;;36.82;27.43
11011;BME280;5558;42.702;23.178;2023-07-13T10:02:59;93947.63;;;36.77;27.40
11011;BME280;5558;42.702;23.178;2023-07-13T10:05:27;93952.75;;;36.79;28.35
11011;BME280;5558;42.702;23.178;2023-07-13T10:07:56;93949.75;;;36.50;26.77
11011;BME280;5558;42.702;23.178;2023-07-13T10:10:23;93942.59;;;36.52;27.81
11011;BME280;5558;42.702;23.178;2023-07-13T10:12:50;93952.03;;;36.55;26.91
11011;BME280;5558;42.702;23.178;2023-07-13T10:15:19;93951.78;;;36.46;28.40
11011;BME280;5558;42.702;23.178;2023-07-13T10:17:47;93940.31;;;36.24;27.64
11011;BME280;5558;42.702;23.178;2023-07-13T10:20:14;93955.81;;;36.41;27.39
11011;BME280;5558;42.702;23.178;2023-07-13T10:22:44;93950.69;;;36.63;27.00
11011;BME280;5558;42.702;23.178;2023-07-13T10:25:19;93951.38;;;36.67;27.32
11011;BME280;5558;42.702;23.178;2023-07-13T10:27:49;93947.44;;;36.68;27.33
11011;BME280;5558;42.702;23.178;2023-07-13T10:30:19;93945.72;;;36.74;27.20
11011;BME280;5558;42.702;23.178;2023-07-13T10:32:48;93918.00;;;36.61;26.80
11011;BME280;5558;42.702;23.178;2023-07-13T10:35:17;93939.03;;;36.75;26.28
11011;BME280;5558;42.702;23.178;2023-07-13T10:37:48;93940.44;;;36.63;26.03
11011;BME280;5558;42.702;23.178;2023-07-13T10:40:20;93932.22;;;36.60;26.46
11011;BME280;5558;42.702;23.178;2023-07-13T10:42:51;93929.25;;;36.70;27.05
11011;BME280;5558;42.702;23.178;2023-07-13T10:45:21;93924.94;;;36.69;27.00
11011;BME280;5558;42.702;23.178;2023-07-13T10:47:50;93914.34;;;36.45;25.32
11011;BME280;5558;42.702;23.178;2023-07-13T10:50:21;93926.22;;;36.42;25.66
11011;BME280;5558;42.702;23.178;2023-07-13T10:52:51;93909.19;;;36.47;25.93
11011;BME280;5558;42.702;23.178;2023-07-13T10:55:38;93912.56;;;36.35;26.14
11011;BME280;5558;42.702;23.178;2023-07-13T10:58:14;93905.00;;;36.39;28.10
11011;BME280;5558;42.702;23.178;2023-07-13T11:00:50;93896.13;;;36.51;29.12
11011;BME280;5558;42.702;23.178;2023-07-13T11:03:21;93901.81;;;36.63;27.81
11011;BME280;5558;42.702;23.178;2023-07-13T11:05:50;93897.56;;;36.79;25.68
11011;BME280;5558;42.702;23.178;2023-07-13T11:08:32;93884.06;;;36.84;26.84
11011;BME280;5558;42.702;23.178;2023-07-13T11:11:03;93887.88;;;36.90;27.65
11011;BME280;5558;42.702;23.178;2023-07-13T11:13:56;93874.28;;;36.99;27.52
11011;BME280;5558;42.702;23.178;2023-07-13T11:16:35;93872.88;;;36.91;26.52
11011;BME280;5558;42.702;23.178;2023-07-13T11:22:19;93885.34;;;36.80;26.98
11011;BME280;5558;42.702;23.178;2023-07-13T11:24:54;93874.34;;;36.76;26.24
11011;BME280;5558;42.702;23.178;2023-07-13T11:27:34;93873.72;;;36.68;27.10
11011;BME280;5558;42.702;23.178;2023-07-13T11:30:23;93882.75;;;36.69;27.51
11011;BME280;5558;42.702;23.178;2023-07-13T11:35:35;93879.91;;;36.72;24.86
11011;BME280;5558;42.702;23.178;2023-07-13T11:38:12;93875.94;;;36.54;27.00
11011;BME280;5558;42.702;23.178;2023-07-13T11:40:41;93869.22;;;36.35;26.40
11011;BME280;5558;42.702;23.178;2023-07-13T11:43:13;93873.59;;;36.33;26.65
11011;BME280;5558;42.702;23.178;2023-07-13T11:45:40;93861.41;;;36.30;26.21
11011;BME280;5558;42.702;23.178;2023-07-13T11:48:18;93860.66;;;36.26;26.10
11011;BME280;5558;42.702;23.178;2023-07-13T11:50:51;93849.78;;;36.19;26.49
11011;BME280;5558;42.702;23.178;2023-07-13T11:53:19;93853.97;;;36.27;26.43
11011;BME280;5558;42.702;23.178;2023-07-13T11:55:46;93851.03;;;36.15;26.98
11011;BME280;5558;42.702;23.178;2023-07-13T11:58:18;93856.41;;;36.45;26.65
11011;BME280;5558;42.702;23.178;2023-07-13T12:00:46;93851.91;;;36.54;27.41
11011;BME280;5558;42.702;23.178;2023-07-13T12:03:18;93845.59;;;36.54;28.66
11011;BME280;5558;42.702;23.178;2023-07-13T12:05:55;93843.00;;;36.66;28.25
11011;BME280;5558;42.702;23.178;2023-07-13T12:08:23;93842.94;;;36.70;29.13
11011;BME280;5558;42.702;23.178;2023-07-13T12:10:58;93832.81;;;36.83;26.15
11011;BME280;5558;42.702;23.178;2023-07-13T12:13:28;93833.72;;;36.96;26.18
11011;BME280;5558;42.702;23.178;2023-07-13T12:15:56;93824.75;;;36.92;27.59
11011;BME280;5558;42.702;23.178;2023-07-13T12:18:29;93825.59;;;36.69;29.18
11011;BME280;5558;42.702;23.178;2023-07-13T12:20:58;93797.13;;;36.72;28.93
11011;BME280;5558;42.702;23.178;2023-07-13T12:23:28;93819.88;;;36.80;29.35
11011;BME280;5558;42.702;23.178;2023-07-13T12:25:57;93819.31;;;36.89;29.23
11011;BME280;5558;42.702;23.178;2023-07-13T12:28:32;93806.66;;;37.07;29.33
11011;BME280;5558;42.702;23.178;2023-07-13T12:31:00;93807.97;;;37.19;29.29
11011;BME280;5558;42.702;23.178;2023-07-13T12:33:29;93803.25;;;37.19;28.53
11011;BME280;5558;42.702;23.178;2023-07-13T12:36:01;93799.84;;;37.12;26.38
11011;BME280;5558;42.702;23.178;2023-07-13T12:38:30;93788.78;;;36.96;26.34
11011;BME280;5558;42.702;23.178;2023-07-13T12:40:56;93797.75;;;37.00;25.61
11011;BME280;5558;42.702;23.178;2023-07-13T12:43:24;93794.31;;;36.96;26.42
11011;BME280;5558;42.702;23.178;2023-07-13T12:46:00;93789.13;;;36.98;27.01
11011;BME280;5558;42.702;23.178;2023-07-13T12:48:27;93794.25;;;36.80;26.54
11011;BME280;5558;42.702;23.178;2023-07-13T12:50:55;93786.88;;;36.93;27.41
11011;BME280;5558;42.702;23.178;2023-07-13T12:53:28;93789.50;;;37.16;27.29
11011;BME280;5558;42.702;23.178;2023-07-13T12:55:59;93779.38;;;37.09;27.81
11011;BME280;5558;42.702;23.178;2023-07-13T12:58:29;93787.19;;;37.14;27.85
11011;BME280;5558;42.702;23.178;2023-07-13T13:01:00;93780.25;;;37.06;26.41
11011;BME280;5558;42.702;23.178;2023-07-13T13:03:31;93778.94;;;36.95;27.15
11011;BME280;5558;42.702;23.178;2023-07-13T13:05:59;93772.63;;;36.94;27.11
11011;BME280;5558;42.702;23.178;2023-07-13T13:08:28;93774.19;;;36.95;26.35
11011;BME280;5558;42.702;23.178;2023-07-13T13:10:55;93769.94;;;36.91;26.94